createdAt,value
2019-05-17T00:00:39.703Z,94873
2019-05-17T00:01:50.217Z,94870
2019-05-17T00:03:00.712Z,94869
2019-05-17T00:04:10.223Z,94871
2019-05-17T00:05:19.786Z,94870
2019-05-17T00:06:29.316Z,94869
2019-05-17T00:07:39.814Z,94871
2019-05-17T00:08:50.334Z,94869
2019-05-17T00:09:59.851Z,94872
2019-05-17T00:11:09.403Z,94869
2019-05-17T00:12:19.916Z,94866
2019-05-17T00:13:30.413Z,94869
2019-05-17T00:14:40.955Z,94865
2019-05-17T00:15:51.465Z,94858
2019-05-17T00:17:00.976Z,94856
2019-05-17T00:18:10.510Z,94856
2019-05-17T00:19:20.008Z,94859
2019-05-17T00:20:29.570Z,94854
2019-05-17T00:21:40.089Z,94852
2019-05-17T00:22:50.622Z,94850
2019-05-17T00:24:00.128Z,94849
2019-05-17T00:25:09.662Z,94847
2019-05-17T00:26:19.194Z,94847
2019-05-17T00:27:29.717Z,94846
2019-05-17T00:28:39.239Z,94846
2019-05-17T00:29:49.804Z,94841
2019-05-17T00:31:00.299Z,94838
2019-05-17T00:32:09.813Z,94837
2019-05-17T00:33:20.322Z,94836
2019-05-17T00:34:29.842Z,94838
2019-05-17T00:35:40.397Z,94839
2019-05-17T00:36:49.922Z,94832
2019-05-17T00:38:00.428Z,94834
2019-05-17T00:39:09.948Z,94832
2019-05-17T00:40:19.481Z,94824
2019-05-17T00:41:30.002Z,94826
2019-05-17T00:42:40.504Z,94819
2019-05-17T00:43:50.022Z,94816
2019-05-17T00:44:59.567Z,94820
2019-05-17T00:46:10.063Z,94816
2019-05-17T00:47:20.586Z,94816
2019-05-17T00:48:30.099Z,94812
2019-05-17T00:49:40.602Z,94814
2019-05-17T00:50:53.086Z,94818
2019-05-17T00:52:00.691Z,94809
2019-05-17T00:53:10.217Z,94815
2019-05-17T00:54:19.752Z,94809
2019-05-17T00:55:30.313Z,94811
2019-05-17T00:56:39.823Z,94815
2019-05-17T00:57:49.348Z,94805
2019-05-17T00:58:59.869Z,94803
2019-05-17T01:00:10.411Z,94808
2019-05-17T01:01:19.919Z,94807
2019-05-17T01:02:30.413Z,94806
2019-05-17T01:03:39.961Z,94801
2019-05-17T01:04:50.479Z,94806
2019-05-17T01:06:00.037Z,94802
2019-05-17T01:07:09.557Z,94797
2019-05-17T01:08:20.107Z,94797
2019-05-17T01:09:29.622Z,94798
2019-05-17T01:10:39.183Z,94796
2019-05-17T01:11:49.712Z,94799
2019-05-17T01:12:59.233Z,94798
2019-05-17T01:14:09.761Z,94794
2019-05-17T01:15:20.303Z,94791
2019-05-17T01:16:29.830Z,94791
2019-05-17T01:17:39.366Z,94788
2019-05-17T01:18:49.867Z,94787
2019-05-17T01:20:00.401Z,94788
2019-05-17T01:21:09.969Z,94792
2019-05-17T01:22:19.498Z,94795
2019-05-17T01:23:29.018Z,94793
2019-05-17T01:24:39.554Z,94784
2019-05-17T01:25:49.121Z,94785
2019-05-17T01:26:59.634Z,94785
2019-05-17T01:28:09.186Z,94783
2019-05-17T01:29:19.695Z,94782
2019-05-17T01:30:30.217Z,94782
2019-05-17T01:31:40.738Z,94782
2019-05-17T01:32:50.243Z,94780
2019-05-17T01:33:59.750Z,94774
2019-05-17T01:35:10.247Z,94776
2019-05-17T01:36:19.829Z,94772
2019-05-17T01:37:29.356Z,94771
2019-05-17T01:38:39.859Z,94773
2019-05-17T01:39:49.377Z,94778
2019-05-17T01:40:59.926Z,94777
2019-05-17T01:42:10.443Z,94778
2019-05-17T01:43:20.028Z,94773
2019-05-17T01:44:30.542Z,94775
2019-05-17T01:45:40.085Z,94770
2019-05-17T01:46:50.611Z,94771
2019-05-17T01:48:00.125Z,94778
2019-05-17T01:49:10.638Z,94776
2019-05-17T01:50:20.144Z,94771
2019-05-17T01:51:29.688Z,94772
2019-05-17T01:52:40.196Z,94773
2019-05-17T01:53:49.720Z,94771
2019-05-17T01:55:00.217Z,94774
2019-05-17T01:56:09.782Z,94774
2019-05-17T01:57:20.300Z,94774
2019-05-17T01:58:30.839Z,94775
2019-05-17T01:59:40.357Z,94776
2019-05-17T02:00:49.892Z,94774
2019-05-17T02:02:00.407Z,94771
2019-05-17T02:03:09.922Z,94768
2019-05-17T02:04:20.446Z,94769
2019-05-17T02:05:29.991Z,94770
2019-05-17T02:06:40.527Z,94765
2019-05-17T02:07:50.035Z,94767
2019-05-17T02:08:59.556Z,94761
2019-05-17T02:10:09.075Z,94762
2019-05-17T02:11:19.615Z,94760
2019-05-17T02:12:30.156Z,94758
2019-05-17T02:13:39.669Z,94757
2019-05-17T02:14:49.192Z,94757
2019-05-17T02:15:59.749Z,94751
2019-05-17T02:17:10.287Z,94754
2019-05-17T02:18:20.833Z,94750
2019-05-17T02:19:30.344Z,94751
2019-05-17T02:20:39.883Z,94750
2019-05-17T02:21:49.475Z,94745
2019-05-17T02:23:00.001Z,94751
2019-05-17T02:24:10.502Z,94745
2019-05-17T02:25:19.999Z,94743
2019-05-17T02:26:30.536Z,94740
2019-05-17T02:27:41.769Z,94742
2019-05-17T02:28:51.900Z,94740
2019-05-17T02:30:02.179Z,94738
2019-05-17T02:31:08.546Z,94742
2019-05-17T02:32:18.076Z,94743
2019-05-17T02:33:27.575Z,94740
2019-05-17T02:34:37.092Z,94740
2019-05-17T02:35:46.587Z,94740
2019-05-17T02:36:56.232Z,94745
2019-05-17T02:38:05.765Z,94740
2019-05-17T02:39:16.255Z,94740
2019-05-17T02:40:25.763Z,94741
2019-05-17T02:41:36.309Z,94742
2019-05-17T02:42:45.818Z,94745
2019-05-17T02:43:56.385Z,94741
2019-05-17T02:45:05.910Z,94737
2019-05-17T02:46:16.430Z,94741
2019-05-17T02:47:25.935Z,94742
2019-05-17T02:48:36.450Z,94743
2019-05-17T02:49:45.943Z,94738
2019-05-17T02:50:55.452Z,94737
2019-05-17T02:52:06.029Z,94737
2019-05-17T02:53:15.572Z,94735
2019-05-17T02:54:26.081Z,94739
2019-05-17T02:55:35.589Z,94734
2019-05-17T02:56:46.116Z,94733
2019-05-17T02:57:56.634Z,94734
2019-05-17T02:59:06.146Z,94738
2019-05-17T03:00:16.658Z,94738
2019-05-17T03:01:27.200Z,94737
2019-05-17T03:02:36.707Z,94735
2019-05-17T03:03:47.218Z,94729
2019-05-17T03:04:56.742Z,94730
2019-05-17T03:06:07.261Z,94727
2019-05-17T03:07:16.813Z,94723
2019-05-17T03:08:26.329Z,94727
2019-05-17T03:09:36.815Z,94724
2019-05-17T03:10:46.322Z,94727
2019-05-17T03:11:57.261Z,94731
2019-05-17T03:13:06.360Z,94731
2019-05-17T03:14:16.870Z,94729
2019-05-17T03:15:26.379Z,94727
2019-05-17T03:16:35.924Z,94728
2019-05-17T03:17:46.435Z,94722
2019-05-17T03:18:56.957Z,94724
2019-05-17T03:20:07.434Z,94723
2019-05-17T03:21:16.960Z,94728
2019-05-17T03:22:26.543Z,94729
2019-05-17T03:23:36.053Z,94727
2019-05-17T03:24:46.580Z,94725
2019-05-17T03:25:56.076Z,94726
2019-05-17T03:27:06.595Z,94726
2019-05-17T03:28:16.118Z,94727
2019-05-17T03:29:26.637Z,94729
2019-05-17T03:30:37.396Z,94724
2019-05-17T03:31:52.988Z,94723
2019-05-17T03:32:57.279Z,94720
2019-05-17T03:34:07.762Z,94723
2019-05-17T03:35:18.482Z,94724
2019-05-17T03:36:28.714Z,94717
2019-05-17T03:37:39.173Z,94723
2019-05-17T03:38:49.680Z,94725
2019-05-17T03:40:02.685Z,94722
2019-05-17T03:41:19.869Z,94718
2019-05-17T03:42:22.582Z,94719
2019-05-17T03:43:29.703Z,94720
2019-05-17T03:44:40.191Z,94716
2019-05-17T03:45:53.107Z,94715
2019-05-17T03:47:02.142Z,94718
2019-05-17T03:48:08.752Z,94713
2019-05-17T03:49:18.323Z,94715
2019-05-17T03:50:27.803Z,94715
2019-05-17T03:51:37.307Z,94712
2019-05-17T03:52:46.825Z,94713
2019-05-17T03:53:56.477Z,94710
2019-05-17T03:55:06.005Z,94712
2019-05-17T03:56:16.493Z,94711
2019-05-17T03:57:26.011Z,94712
2019-05-17T03:58:35.530Z,94714
2019-05-17T03:59:46.017Z,94711
2019-05-17T04:00:55.535Z,94713
2019-05-17T04:02:06.087Z,94713
2019-05-17T04:03:15.622Z,94720
2019-05-17T04:04:26.159Z,94714
2019-05-17T04:05:35.669Z,94718
2019-05-17T04:06:46.179Z,94716
2019-05-17T04:07:55.720Z,94720
2019-05-17T04:09:06.221Z,94717
2019-05-17T04:10:16.751Z,94711
2019-05-17T04:11:31.697Z,94717
2019-05-17T04:12:36.772Z,94714
2019-05-17T04:13:47.289Z,94710
2019-05-17T04:14:56.796Z,94711
2019-05-17T04:16:09.074Z,94709
2019-05-17T04:17:16.805Z,94710
2019-05-17T04:18:26.299Z,94710
2019-05-17T04:19:36.798Z,94707
2019-05-17T04:20:46.305Z,94704
2019-05-17T04:21:55.824Z,94704
2019-05-17T04:23:06.482Z,94707
2019-05-17T04:24:16.008Z,94707
2019-05-17T04:25:26.510Z,94707
2019-05-17T04:26:37.020Z,94706
2019-05-17T04:27:46.559Z,94704
2019-05-17T04:28:56.067Z,94704
2019-05-17T04:30:06.556Z,94704
2019-05-17T04:31:16.056Z,94702
2019-05-17T04:32:25.609Z,94703
2019-05-17T04:33:36.136Z,94702
2019-05-17T04:34:45.632Z,94708
2019-05-17T04:35:55.134Z,94706
2019-05-17T04:37:05.639Z,94709
2019-05-17T04:38:16.267Z,94711
2019-05-17T04:39:26.791Z,94709
2019-05-17T04:40:36.332Z,94711
2019-05-17T04:41:50.109Z,94711
2019-05-17T04:42:56.357Z,94714
2019-05-17T04:44:06.872Z,94710
2019-05-17T04:45:16.386Z,94712
2019-05-17T04:46:25.913Z,94708
2019-05-17T04:47:35.504Z,94710
2019-05-17T04:48:46.017Z,94710
2019-05-17T04:49:56.511Z,94710
2019-05-17T04:51:07.064Z,94708
2019-05-17T04:52:16.645Z,94706
2019-05-17T04:53:26.256Z,94702
2019-05-17T04:54:35.749Z,94706
2019-05-17T04:55:45.276Z,94705
2019-05-17T04:56:55.796Z,94700
2019-05-17T04:58:05.327Z,94702
2019-05-17T04:59:15.834Z,94694
2019-05-17T05:00:26.332Z,94692
2019-05-17T05:01:36.855Z,94691
2019-05-17T05:02:46.397Z,94694
2019-05-17T05:03:55.931Z,94694
2019-05-17T05:05:06.427Z,94696
2019-05-17T05:06:15.947Z,94699
2019-05-17T05:07:26.482Z,94696
2019-05-17T05:08:36.092Z,94701
2019-05-17T05:09:45.617Z,94699
2019-05-17T05:10:55.136Z,94703
2019-05-17T05:12:06.462Z,94700
2019-05-17T05:13:15.207Z,94697
2019-05-17T05:14:25.691Z,94695
2019-05-17T05:15:36.187Z,94691
2019-05-17T05:16:46.708Z,94695
2019-05-17T05:17:56.254Z,94696
2019-05-17T05:19:05.767Z,94695
2019-05-17T05:20:16.291Z,94696
2019-05-17T05:21:25.813Z,94694
2019-05-17T05:22:35.317Z,94696
2019-05-17T05:23:45.917Z,94698
2019-05-17T05:24:55.442Z,94697
2019-05-17T05:26:04.964Z,94700
2019-05-17T05:27:14.469Z,94696
2019-05-17T05:28:25.015Z,94698
2019-05-17T05:29:34.516Z,94700
2019-05-17T05:30:44.034Z,94691
2019-05-17T05:31:54.534Z,94690
2019-05-17T05:33:05.067Z,94693
2019-05-17T05:34:15.601Z,94691
2019-05-17T05:35:25.119Z,94690
2019-05-17T05:36:34.662Z,94690
2019-05-17T05:37:45.177Z,94692
2019-05-17T05:38:55.735Z,94692
2019-05-17T05:40:05.269Z,94694
2019-05-17T05:41:15.766Z,94694
2019-05-17T05:42:25.294Z,94692
2019-05-17T05:43:34.866Z,94689
2019-05-17T05:44:45.398Z,94690
2019-05-17T05:45:55.909Z,94690
2019-05-17T05:47:05.420Z,94693
2019-05-17T05:48:14.965Z,94698
2019-05-17T05:49:24.473Z,94693
2019-05-17T05:50:34.985Z,94698
2019-05-17T05:51:45.501Z,94694
2019-05-17T05:52:55.003Z,94694
2019-05-17T05:54:04.586Z,94696
2019-05-17T05:55:15.117Z,94696
2019-05-17T05:56:25.637Z,94692
2019-05-17T05:57:35.165Z,94689
2019-05-17T05:58:44.701Z,94688
2019-05-17T05:59:55.204Z,94683
2019-05-17T06:01:04.726Z,94685
2019-05-17T06:02:15.246Z,94681
2019-05-17T06:03:24.802Z,94682
2019-05-17T06:04:35.320Z,94683
2019-05-17T06:05:44.850Z,94680
2019-05-17T06:06:55.374Z,94684
2019-05-17T06:08:05.890Z,94684
2019-05-17T06:09:15.483Z,94683
2019-05-17T06:10:25.012Z,94687
2019-05-17T06:11:35.526Z,94682
2019-05-17T06:12:45.032Z,94682
2019-05-17T06:13:55.589Z,94682
2019-05-17T06:15:05.117Z,94682
2019-05-17T06:16:15.629Z,94682
2019-05-17T06:17:26.165Z,94681
2019-05-17T06:18:35.715Z,94678
2019-05-17T06:19:45.228Z,94684
2019-05-17T06:20:54.774Z,94684
2019-05-17T06:22:05.294Z,94681
2019-05-17T06:23:14.802Z,94682
2019-05-17T06:24:25.372Z,94686
2019-05-17T06:25:34.909Z,94685
2019-05-17T06:26:45.408Z,94681
2019-05-17T06:27:54.945Z,94684
2019-05-17T06:29:04.479Z,94682
2019-05-17T06:30:14.993Z,94682
2019-05-17T06:31:24.487Z,94681
2019-05-17T06:32:35.019Z,94683
2019-05-17T06:33:45.549Z,94679
2019-05-17T06:34:55.089Z,94682
2019-05-17T06:36:04.590Z,94684
2019-05-17T06:37:16.634Z,94686
2019-05-17T06:38:25.659Z,94687
2019-05-17T06:39:36.181Z,94684
2019-05-17T06:40:45.696Z,94681
2019-05-17T06:41:55.228Z,94684
2019-05-17T06:43:05.757Z,94679
2019-05-17T06:44:16.298Z,94681
2019-05-17T06:45:26.813Z,94682
2019-05-17T06:46:36.307Z,94679
2019-05-17T06:47:45.803Z,94684
2019-05-17T06:48:55.357Z,94684
2019-05-17T06:50:05.864Z,94686
2019-05-17T06:51:16.371Z,94681
2019-05-17T06:52:25.896Z,94676
2019-05-17T06:53:35.473Z,94674
2019-05-17T06:54:45.985Z,94677
2019-05-17T06:55:55.484Z,94678
2019-05-17T06:57:06.013Z,94679
2019-05-17T06:58:15.548Z,94682
2019-05-17T06:59:25.146Z,94678
2019-05-17T07:00:34.678Z,94684
2019-05-17T07:01:44.211Z,94681
2019-05-17T07:02:53.746Z,94684
2019-05-17T07:04:03.332Z,94674
2019-05-17T07:05:12.872Z,94677
2019-05-17T07:06:23.378Z,94679
2019-05-17T07:07:32.905Z,94684
2019-05-17T07:08:43.477Z,94682
2019-05-17T07:09:53.007Z,94682
2019-05-17T07:11:03.529Z,94680
2019-05-17T07:12:13.057Z,94687
2019-05-17T07:13:23.560Z,94684
2019-05-17T07:14:33.094Z,94685
2019-05-17T07:15:47.008Z,94677
2019-05-17T07:16:53.107Z,94674
2019-05-17T07:18:02.617Z,94675
2019-05-17T07:19:13.167Z,94679
2019-05-17T07:20:22.709Z,94679
2019-05-17T07:21:33.208Z,94676
2019-05-17T07:22:43.738Z,94675
2019-05-17T07:23:54.375Z,94673
2019-05-17T07:25:03.892Z,94668
2019-05-17T07:26:13.404Z,94675
2019-05-17T07:27:22.916Z,94672
2019-05-17T07:28:33.410Z,94675
2019-05-17T07:29:42.952Z,94676
2019-05-17T07:30:52.485Z,94673
2019-05-17T07:32:02.992Z,94675
2019-05-17T07:33:12.536Z,94666
2019-05-17T07:34:23.088Z,94671
2019-05-17T07:35:33.597Z,94668
2019-05-17T07:36:43.119Z,94670
2019-05-17T07:37:53.647Z,94664
2019-05-17T07:39:03.223Z,94670
2019-05-17T07:40:13.710Z,94668
2019-05-17T07:41:23.209Z,94661
2019-05-17T07:42:32.723Z,94667
2019-05-17T07:43:42.261Z,94667
2019-05-17T07:44:52.828Z,94660
2019-05-17T07:46:03.331Z,94664
2019-05-17T07:47:12.850Z,94652
2019-05-17T07:48:23.354Z,94654
2019-05-17T07:49:33.893Z,94653
2019-05-17T07:50:43.417Z,94652
2019-05-17T07:51:52.935Z,94654
2019-05-17T07:53:03.442Z,94658
2019-05-17T07:54:12.994Z,94655
2019-05-17T07:55:23.110Z,94654
2019-05-17T07:56:33.037Z,94650
2019-05-17T07:57:43.558Z,94650
2019-05-17T07:58:53.077Z,94653
2019-05-17T08:00:02.643Z,94652
2019-05-17T08:01:13.160Z,94651
2019-05-17T08:02:23.696Z,94652
2019-05-17T08:03:33.256Z,94651
2019-05-17T08:04:43.801Z,94654
2019-05-17T08:05:53.327Z,94654
2019-05-17T08:07:02.828Z,94644
2019-05-17T08:08:13.364Z,94646
2019-05-17T08:09:23.899Z,94646
2019-05-17T08:10:33.428Z,94640
2019-05-17T08:11:43.922Z,94642
2019-05-17T08:12:53.440Z,94637
2019-05-17T08:14:02.959Z,94638
2019-05-17T08:15:13.508Z,94640
2019-05-17T08:16:23.019Z,94641
2019-05-17T08:17:33.554Z,94640
2019-05-17T08:18:43.069Z,94645
2019-05-17T08:19:52.604Z,94637
2019-05-17T08:21:03.142Z,94641
2019-05-17T08:22:13.655Z,94641
2019-05-17T08:23:23.170Z,94640
2019-05-17T08:24:33.687Z,94635
2019-05-17T08:25:52.567Z,94636
2019-05-17T08:26:53.701Z,94637
2019-05-17T08:28:03.207Z,94639
2019-05-17T08:29:13.729Z,94636
2019-05-17T08:30:23.258Z,94637
2019-05-17T08:31:32.785Z,94638
2019-05-17T08:32:43.311Z,94636
2019-05-17T08:33:53.817Z,94647
2019-05-17T08:35:03.357Z,94634
2019-05-17T08:36:13.867Z,94634
2019-05-17T08:37:23.382Z,94635
2019-05-17T08:38:32.884Z,94637
2019-05-17T08:39:42.441Z,94632
2019-05-17T08:40:52.957Z,94635
2019-05-17T08:42:03.461Z,94631
2019-05-17T08:43:12.996Z,94632
2019-05-17T08:44:23.490Z,94634
2019-05-17T08:45:33.051Z,94633
2019-05-17T08:46:43.585Z,94634
2019-05-17T08:47:53.102Z,94626
2019-05-17T08:49:03.601Z,94626
2019-05-17T08:50:13.181Z,94623
2019-05-17T08:51:22.691Z,94628
2019-05-17T08:52:33.186Z,94625
2019-05-17T08:53:42.705Z,94630
2019-05-17T08:54:52.224Z,94626
2019-05-17T08:56:02.759Z,94625
2019-05-17T08:57:13.281Z,94625
2019-05-17T08:58:23.789Z,94622
2019-05-17T08:59:33.336Z,94622
2019-05-17T09:00:43.845Z,94621
2019-05-17T09:01:53.341Z,94610
2019-05-17T09:03:02.868Z,94605
2019-05-17T09:04:13.379Z,94609
2019-05-17T09:05:22.950Z,94607
2019-05-17T09:06:33.467Z,94600
2019-05-17T09:07:42.973Z,94601
2019-05-17T09:08:52.495Z,94599
2019-05-17T09:10:02.984Z,94597
2019-05-17T09:11:13.522Z,94604
2019-05-17T09:12:23.063Z,94604
2019-05-17T09:13:32.565Z,94605
2019-05-17T09:14:43.088Z,94599
2019-05-17T09:15:52.661Z,94596
2019-05-17T09:17:03.166Z,94594
2019-05-17T09:18:13.677Z,94592
2019-05-17T09:19:23.184Z,94596
2019-05-17T09:20:32.695Z,94591
2019-05-17T09:21:43.243Z,94590
2019-05-17T09:22:52.772Z,94591
2019-05-17T09:24:03.285Z,94592
2019-05-17T09:25:18.598Z,94589
2019-05-17T09:26:24.306Z,94591
2019-05-17T09:27:33.818Z,94588
2019-05-17T09:28:43.363Z,94587
2019-05-17T09:29:52.864Z,94583
2019-05-17T09:31:03.432Z,94587
2019-05-17T09:32:12.964Z,94581
2019-05-17T09:33:23.479Z,94585
2019-05-17T09:34:32.984Z,94584
2019-05-17T09:35:43.504Z,94579
2019-05-17T09:36:53.061Z,94585
2019-05-17T09:38:03.571Z,94584
2019-05-17T09:39:13.089Z,94585
2019-05-17T09:40:22.627Z,94588
2019-05-17T09:41:32.171Z,94582
2019-05-17T09:42:42.678Z,94579
2019-05-17T09:43:53.213Z,94587
2019-05-17T09:45:03.712Z,94582
2019-05-17T09:46:13.227Z,94585
2019-05-17T09:47:22.762Z,94584
2019-05-17T09:48:33.292Z,94585
2019-05-17T09:49:42.823Z,94574
2019-05-17T09:50:53.359Z,94575
2019-05-17T09:52:02.949Z,94573
2019-05-17T09:53:12.460Z,94571
2019-05-17T09:54:37.224Z,94567
2019-05-17T09:55:33.450Z,94564
2019-05-17T09:56:42.960Z,94566
2019-05-17T09:57:52.492Z,94568
2019-05-17T09:59:03.014Z,94567
2019-05-17T10:00:12.518Z,94567
2019-05-17T10:01:23.020Z,94565
2019-05-17T10:02:33.558Z,94564
2019-05-17T10:03:44.051Z,94561
2019-05-17T10:04:53.563Z,94560
2019-05-17T10:06:03.086Z,94561
2019-05-17T10:07:12.667Z,94559
2019-05-17T10:08:23.172Z,94566
2019-05-17T10:09:32.708Z,94551
2019-05-17T10:10:43.233Z,94554
2019-05-17T10:11:53.744Z,94560
2019-05-17T10:13:03.303Z,94560
2019-05-17T10:14:23.590Z,94556
2019-05-17T10:15:23.297Z,94553
2019-05-17T10:16:32.807Z,94550
2019-05-17T10:17:42.361Z,94553
2019-05-17T10:18:51.898Z,94548
2019-05-17T10:20:02.419Z,94548
2019-05-17T10:21:12.939Z,94545
2019-05-17T10:22:22.504Z,94545
2019-05-17T10:23:33.007Z,94541
2019-05-17T10:24:43.507Z,94546
2019-05-17T10:25:53.030Z,94545
2019-05-17T10:27:02.571Z,94536
2019-05-17T10:28:13.115Z,94536
2019-05-17T10:29:23.613Z,94534
2019-05-17T10:30:33.141Z,94536
2019-05-17T10:31:42.681Z,94539
2019-05-17T10:32:53.241Z,94537
2019-05-17T10:34:02.750Z,94538
2019-05-17T10:35:12.247Z,94538
2019-05-17T10:36:20.783Z,94539
2019-05-17T10:37:31.304Z,94530
2019-05-17T10:38:41.826Z,94528
2019-05-17T10:39:52.329Z,94526
2019-05-17T10:41:01.851Z,94531
2019-05-17T10:42:12.345Z,94526
2019-05-17T10:43:22.894Z,94528
2019-05-17T10:44:42.940Z,94530
2019-05-17T10:45:42.898Z,94529
2019-05-17T10:46:52.444Z,94531
2019-05-17T10:48:01.976Z,94530
2019-05-17T10:49:12.493Z,94530
2019-05-17T10:50:23.000Z,94526
2019-05-17T10:51:32.514Z,94524
2019-05-17T10:52:43.050Z,94526
2019-05-17T10:53:52.570Z,94527
2019-05-17T10:55:03.100Z,94525
2019-05-17T10:56:13.619Z,94526
2019-05-17T10:57:24.140Z,94521
2019-05-17T10:58:33.712Z,94526
2019-05-17T10:59:43.214Z,94523
2019-05-17T11:00:52.730Z,94520
2019-05-17T11:02:03.252Z,94524
2019-05-17T11:03:12.782Z,94520
2019-05-17T11:04:23.273Z,94524
2019-05-17T11:05:32.806Z,94517
2019-05-17T11:06:43.327Z,94520
2019-05-17T11:07:52.865Z,94518
2019-05-17T11:09:02.394Z,94520
2019-05-17T11:10:12.899Z,94519
2019-05-17T11:11:22.431Z,94520
2019-05-17T11:12:33.020Z,94520
2019-05-17T11:13:42.536Z,94513
2019-05-17T11:15:08.133Z,94517
2019-05-17T11:16:02.516Z,94512
2019-05-17T11:17:12.034Z,94515
2019-05-17T11:18:21.607Z,94515
2019-05-17T11:19:31.130Z,94513
2019-05-17T11:20:40.639Z,94512
2019-05-17T11:21:50.179Z,94507
2019-05-17T11:22:59.741Z,94508
2019-05-17T11:24:09.367Z,94515
2019-05-17T11:25:18.826Z,94512
2019-05-17T11:26:28.350Z,94514
2019-05-17T11:27:37.892Z,94514
2019-05-17T11:28:47.457Z,94515
2019-05-17T11:29:56.985Z,94516
2019-05-17T11:31:06.529Z,94512
2019-05-17T11:32:16.158Z,94514
2019-05-17T11:33:25.620Z,94508
2019-05-17T11:34:35.147Z,94512
2019-05-17T11:35:44.689Z,94513
2019-05-17T11:36:54.226Z,94512
2019-05-17T11:38:03.771Z,94512
2019-05-17T11:39:13.298Z,94512
2019-05-17T11:40:22.802Z,94510
2019-05-17T11:41:32.313Z,94511
2019-05-17T11:42:41.863Z,94506
2019-05-17T11:43:51.455Z,94505
2019-05-17T11:45:00.993Z,94504
2019-05-17T11:46:10.525Z,94500
2019-05-17T11:47:20.068Z,94503
2019-05-17T11:48:29.592Z,94499
2019-05-17T11:49:39.100Z,94504
2019-05-17T11:50:48.647Z,94505
2019-05-17T11:51:58.178Z,94502
2019-05-17T11:53:08.695Z,94500
2019-05-17T11:54:18.242Z,94504
2019-05-17T11:55:27.762Z,94498
2019-05-17T11:56:37.286Z,94505
2019-05-17T11:57:46.821Z,94507
2019-05-17T11:58:56.399Z,94502
2019-05-17T12:00:05.944Z,94505
2019-05-17T12:01:15.470Z,94503
2019-05-17T12:02:24.973Z,94496
2019-05-17T12:03:34.535Z,94491
2019-05-17T12:04:44.104Z,94499
2019-05-17T12:05:53.631Z,94503
2019-05-17T12:07:03.163Z,94493
2019-05-17T12:08:12.677Z,94496
2019-05-17T12:09:35.173Z,94490
2019-05-17T12:10:32.757Z,94495
2019-05-17T12:11:42.245Z,94488
2019-05-17T12:12:51.779Z,94486
2019-05-17T12:14:01.321Z,94483
2019-05-17T12:15:10.841Z,94485
2019-05-17T12:16:20.374Z,94483
2019-05-17T12:17:29.893Z,94483
2019-05-17T12:18:39.416Z,94485
2019-05-17T12:19:49.032Z,94487
2019-05-17T12:20:58.537Z,94490
2019-05-17T12:22:08.051Z,94492
2019-05-17T12:23:17.587Z,94489
2019-05-17T12:24:27.159Z,94486
2019-05-17T12:25:36.708Z,94483
2019-05-17T12:26:47.512Z,94483
2019-05-17T12:27:55.762Z,94481
2019-05-17T12:29:05.290Z,94479
2019-05-17T12:30:14.944Z,94482
2019-05-17T12:31:24.464Z,94484
2019-05-17T12:32:33.994Z,94483
2019-05-17T12:33:43.514Z,94477
2019-05-17T12:34:53.176Z,94484
2019-05-17T12:36:02.691Z,94480
2019-05-17T12:37:12.206Z,94476
2019-05-17T12:38:21.746Z,94476
2019-05-17T12:39:31.396Z,94469
2019-05-17T12:40:40.930Z,94477
2019-05-17T12:41:50.473Z,94468
2019-05-17T12:42:59.999Z,94468
2019-05-17T12:44:09.535Z,94467
2019-05-17T12:45:19.230Z,94467
2019-05-17T12:46:28.795Z,94460
2019-05-17T12:47:38.488Z,94466
2019-05-17T12:48:48.134Z,94464
2019-05-17T12:49:57.789Z,94465
2019-05-17T12:51:07.340Z,94469
2019-05-17T12:52:16.890Z,94468
2019-05-17T12:53:26.397Z,94466
2019-05-17T12:54:35.927Z,94467
2019-05-17T12:55:45.585Z,94462
2019-05-17T12:56:55.117Z,94466
2019-05-17T12:58:05.718Z,94468
2019-05-17T12:59:15.206Z,94473
2019-05-17T13:00:24.897Z,94466
2019-05-17T13:01:34.451Z,94463
2019-05-17T13:02:44.000Z,94470
2019-05-17T13:03:53.585Z,94472
2019-05-17T13:05:03.165Z,94474
2019-05-17T13:06:12.731Z,94468
2019-05-17T13:07:22.270Z,94465
2019-05-17T13:08:32.210Z,94467
2019-05-17T13:09:41.739Z,94465
2019-05-17T13:10:51.310Z,94466
2019-05-17T13:12:00.842Z,94466
2019-05-17T13:13:10.359Z,94458
2019-05-17T13:14:19.923Z,94461
2019-05-17T13:15:30.462Z,94465
2019-05-17T13:16:39.978Z,94458
2019-05-17T13:17:49.559Z,94460
2019-05-17T13:18:59.023Z,94462
2019-05-17T13:20:08.586Z,94460
2019-05-17T13:21:18.104Z,94448
2019-05-17T13:22:27.634Z,94455
2019-05-17T13:23:37.180Z,94450
2019-05-17T13:24:46.706Z,94454
2019-05-17T13:25:56.282Z,94445
2019-05-17T13:27:05.828Z,94451
2019-05-17T13:28:15.364Z,94450
2019-05-17T13:29:24.867Z,94448
2019-05-17T13:30:34.436Z,94445
2019-05-17T13:31:43.986Z,94446
2019-05-17T13:32:53.537Z,94449
2019-05-17T13:34:03.060Z,94454
2019-05-17T13:35:12.644Z,94448
2019-05-17T13:36:22.183Z,94446
2019-05-17T13:37:31.724Z,94444
2019-05-17T13:38:41.257Z,94446
2019-05-17T13:39:50.814Z,94442
2019-05-17T13:41:00.350Z,94448
2019-05-17T13:42:09.864Z,94439
2019-05-17T13:43:19.390Z,94438
2019-05-17T13:44:28.911Z,94438
2019-05-17T13:45:38.442Z,94437
2019-05-17T13:46:47.984Z,94449
2019-05-17T13:47:57.515Z,94458
2019-05-17T13:49:07.022Z,94462
2019-05-17T13:50:16.580Z,94451
2019-05-17T13:51:26.103Z,94468
2019-05-17T13:52:35.647Z,94458
2019-05-17T13:53:45.212Z,94455
2019-05-17T13:54:54.679Z,94454
2019-05-17T13:56:04.216Z,94456
2019-05-17T13:57:13.761Z,94460
2019-05-17T13:58:23.299Z,94453
2019-05-17T13:59:32.818Z,94455
2019-05-17T14:00:42.362Z,94436
2019-05-17T14:01:51.894Z,94437
2019-05-17T14:03:01.439Z,94438
2019-05-17T14:04:10.950Z,94439
2019-05-17T14:05:20.521Z,94434
2019-05-17T14:06:30.062Z,94439
2019-05-17T14:07:39.593Z,94441
2019-05-17T14:08:49.146Z,94448
2019-05-17T14:09:58.668Z,94455
2019-05-17T14:11:08.193Z,94437
2019-05-17T14:12:17.708Z,94447
2019-05-17T14:13:27.204Z,94447
2019-05-17T14:14:36.736Z,94448
2019-05-17T14:15:46.286Z,94449
2019-05-17T14:16:55.794Z,94447
2019-05-17T14:18:05.339Z,94441
2019-05-17T14:19:14.862Z,94443
2019-05-17T14:20:24.382Z,94445
2019-05-17T14:21:34.000Z,94430
2019-05-17T14:22:43.504Z,94430
2019-05-17T14:23:53.020Z,94433
2019-05-17T14:25:02.544Z,94437
2019-05-17T14:26:12.108Z,94432
2019-05-17T14:27:21.635Z,94444
2019-05-17T14:28:31.181Z,94427
2019-05-17T14:29:40.768Z,94452
2019-05-17T14:30:50.280Z,94428
2019-05-17T14:31:59.780Z,94431
2019-05-17T14:33:09.328Z,94428
2019-05-17T14:34:18.852Z,94433
2019-05-17T14:35:28.360Z,94435
2019-05-17T14:36:37.926Z,94440
2019-05-17T14:37:47.446Z,94430
2019-05-17T14:38:56.967Z,94429
2019-05-17T14:40:06.501Z,94433
2019-05-17T14:41:16.043Z,94430
2019-05-17T14:42:25.552Z,94435
2019-05-17T14:43:35.077Z,94452
2019-05-17T14:44:44.585Z,94447
2019-05-17T14:45:54.146Z,94437
2019-05-17T14:47:03.676Z,94454
2019-05-17T14:48:13.179Z,94436
2019-05-17T14:49:22.702Z,94436
2019-05-17T14:50:32.250Z,94456
2019-05-17T14:51:41.789Z,94457
2019-05-17T14:52:51.318Z,94457
2019-05-17T14:54:00.886Z,94434
2019-05-17T14:55:10.372Z,94435
2019-05-17T14:56:19.938Z,94432
2019-05-17T14:57:29.471Z,94428
2019-05-17T14:58:38.990Z,94458
2019-05-17T14:59:48.573Z,94432